createdAt,value
2023-05-30T00:00:40.378Z,417.00
2023-05-30T00:01:40.321Z,422.00
2023-05-30T00:02:41.412Z,417.00
2023-05-30T00:03:42.000Z,421.00
2023-05-30T00:04:42.424Z,419.00
2023-05-30T00:05:43.300Z,422.00
2023-05-30T00:06:44.250Z,425.00
2023-05-30T00:07:45.198Z,423.00
2023-05-30T00:08:46.176Z,425.00
2023-05-30T00:09:47.391Z,424.00
2023-05-30T00:10:47.307Z,423.00
2023-05-30T00:11:48.241Z,423.00
2023-05-30T00:12:49.153Z,423.00
2023-05-30T00:13:50.049Z,422.00
2023-05-30T00:14:50.951Z,422.00
2023-05-30T00:15:51.924Z,422.00
2023-05-30T00:16:52.886Z,425.00
2023-05-30T00:17:53.938Z,411.00
2023-05-30T00:18:54.421Z,416.00
2023-05-30T00:19:55.884Z,418.00
2023-05-30T00:20:56.235Z,418.00
2023-05-30T00:21:57.386Z,419.00
2023-05-30T00:22:57.289Z,420.00
2023-05-30T00:23:58.235Z,423.00
2023-05-30T00:24:59.141Z,421.00
2023-05-30T00:26:00.150Z,423.00
2023-05-30T00:27:01.917Z,421.00
2023-05-30T00:28:01.896Z,420.00
2023-05-30T00:29:02.904Z,419.00
2023-05-30T00:30:03.408Z,421.00
2023-05-30T00:31:04.349Z,419.00
2023-05-30T00:32:05.334Z,421.00
2023-05-30T00:33:05.887Z,420.00
2023-05-30T00:34:06.841Z,425.00
2023-05-30T00:35:07.848Z,423.00
2023-05-30T00:36:08.285Z,420.00
2023-05-30T00:37:09.207Z,423.00
2023-05-30T00:38:11.214Z,422.00
2023-05-30T00:39:10.671Z,423.00
2023-05-30T00:40:11.623Z,422.00
2023-05-30T00:41:12.101Z,421.00
2023-05-30T00:42:12.999Z,417.00
2023-05-30T00:43:13.915Z,416.00
2023-05-30T00:44:14.859Z,418.00
2023-05-30T00:45:15.765Z,420.00
2023-05-30T00:46:16.719Z,423.00
2023-05-30T00:47:17.646Z,426.00
2023-05-30T00:48:18.593Z,430.00
2023-05-30T00:49:19.575Z,430.00
2023-05-30T00:50:20.448Z,430.00
2023-05-30T00:51:21.360Z,426.00
2023-05-30T00:52:22.901Z,427.00
2023-05-30T00:53:22.834Z,427.00
2023-05-30T00:54:23.757Z,426.00
2023-05-30T00:55:24.650Z,428.00
2023-05-30T00:56:25.577Z,428.00
2023-05-30T00:57:26.503Z,428.00
2023-05-30T00:58:27.427Z,430.00
2023-05-30T00:59:28.333Z,427.00
2023-05-30T01:00:29.289Z,427.00
2023-05-30T01:01:30.186Z,425.00
2023-05-30T01:02:31.195Z,425.00
2023-05-30T01:03:31.626Z,423.00
2023-05-30T01:04:32.302Z,424.00
2023-05-30T01:05:33.898Z,424.00
2023-05-30T01:06:33.841Z,423.00
2023-05-30T01:07:34.760Z,424.00
2023-05-30T01:08:35.689Z,425.00
2023-05-30T01:09:36.578Z,424.00
2023-05-30T01:10:37.536Z,426.00
2023-05-30T01:11:38.478Z,424.00
2023-05-30T01:12:39.396Z,423.00
2023-05-30T01:13:40.301Z,424.00
2023-05-30T01:14:41.206Z,422.00
2023-05-30T01:15:42.109Z,421.00
2023-05-30T01:16:43.098Z,420.00
2023-05-30T01:17:44.971Z,423.00
2023-05-30T01:18:44.822Z,426.00
2023-05-30T01:19:45.699Z,429.00
2023-05-30T01:20:46.728Z,430.00
2023-05-30T01:21:47.208Z,428.00
2023-05-30T01:22:49.215Z,427.00
2023-05-30T01:23:48.674Z,427.00
2023-05-30T01:24:49.125Z,427.00
2023-05-30T01:25:50.066Z,425.00
2023-05-30T01:26:50.973Z,426.00
2023-05-30T01:27:51.883Z,422.00
2023-05-30T01:28:52.788Z,423.00
2023-05-30T01:29:53.732Z,421.00
2023-05-30T01:30:54.704Z,424.00
2023-05-30T01:31:55.624Z,424.00
2023-05-30T01:32:56.592Z,423.00
2023-05-30T01:33:57.472Z,421.00
2023-05-30T01:34:58.419Z,423.00
2023-05-30T01:35:59.901Z,424.00
2023-05-30T01:37:01.506Z,424.00
2023-05-30T01:38:00.403Z,425.00
2023-05-30T01:39:01.315Z,427.00
2023-05-30T01:40:02.224Z,429.00
2023-05-30T01:41:03.156Z,423.00
2023-05-30T01:42:04.063Z,426.00
2023-05-30T01:43:05.895Z,427.00
2023-05-30T01:44:05.835Z,428.00
2023-05-30T01:45:06.783Z,428.00
2023-05-30T01:46:07.740Z,426.00
2023-05-30T01:47:09.761Z,426.00
2023-05-30T01:48:09.972Z,427.00
2023-05-30T01:49:09.917Z,429.00
2023-05-30T01:50:12.444Z,428.00
2023-05-30T01:51:11.325Z,422.00
2023-05-30T01:52:12.237Z,426.00
2023-05-30T01:53:13.153Z,428.00
2023-05-30T01:54:14.088Z,428.00
2023-05-30T01:55:14.618Z,430.00
2023-05-30T01:56:15.488Z,427.00
2023-05-30T01:57:16.417Z,428.00
2023-05-30T01:58:17.353Z,431.00
2023-05-30T01:59:18.260Z,430.00
2023-05-30T02:00:19.154Z,428.00
2023-05-30T02:01:20.120Z,426.00
2023-05-30T02:02:21.039Z,426.00
2023-05-30T02:03:22.964Z,427.00
2023-05-30T02:04:22.861Z,427.00
2023-05-30T02:05:23.838Z,426.00
2023-05-30T02:06:24.724Z,426.00
2023-05-30T02:07:25.667Z,427.00
2023-05-30T02:08:26.584Z,432.00
2023-05-30T02:09:27.514Z,430.00
2023-05-30T02:10:28.950Z,429.00
2023-05-30T02:11:29.351Z,427.00
2023-05-30T02:12:30.903Z,425.00
2023-05-30T02:13:30.818Z,424.00
2023-05-30T02:14:31.727Z,425.00
2023-05-30T02:15:32.632Z,426.00
2023-05-30T02:16:33.562Z,423.00
2023-05-30T02:17:34.528Z,423.00
2023-05-30T02:18:35.398Z,423.00
2023-05-30T02:19:36.304Z,417.00
2023-05-30T02:20:37.276Z,421.00
2023-05-30T02:21:38.488Z,418.00
2023-05-30T02:22:38.892Z,417.00
2023-05-30T02:23:39.802Z,417.00
2023-05-30T02:24:40.725Z,417.00
2023-05-30T02:25:41.649Z,419.00
2023-05-30T02:26:42.583Z,419.00
2023-05-30T02:27:43.523Z,419.00
2023-05-30T02:28:44.414Z,424.00
2023-05-30T02:29:45.298Z,418.00
2023-05-30T02:30:46.228Z,419.00
2023-05-30T02:31:47.213Z,419.00
2023-05-30T02:32:47.727Z,422.00
2023-05-30T02:33:48.600Z,423.00
2023-05-30T02:34:49.505Z,417.00
2023-05-30T02:35:50.484Z,422.00
2023-05-30T02:36:51.366Z,421.00
2023-05-30T02:37:52.285Z,423.00
2023-05-30T02:38:53.161Z,422.00
2023-05-30T02:39:54.108Z,421.00
2023-05-30T02:40:55.351Z,419.00
2023-05-30T02:41:56.436Z,419.00
2023-05-30T02:42:58.117Z,421.00
2023-05-30T02:43:57.496Z,425.00
2023-05-30T02:44:58.440Z,423.00
2023-05-30T02:45:59.339Z,424.00
2023-05-30T02:47:00.303Z,422.00
2023-05-30T02:48:01.934Z,419.00
2023-05-30T02:49:02.421Z,422.00
2023-05-30T02:50:02.374Z,420.00
2023-05-30T02:51:03.278Z,421.00
2023-05-30T02:52:04.936Z,419.00
2023-05-30T02:53:04.827Z,422.00
2023-05-30T02:54:05.771Z,425.00
2023-05-30T02:55:06.667Z,425.00
2023-05-30T02:56:07.605Z,424.00
2023-05-30T02:57:08.537Z,424.00
2023-05-30T02:58:09.438Z,422.00
2023-05-30T02:59:10.929Z,421.00
2023-05-30T03:00:10.851Z,421.00
2023-05-30T03:01:11.786Z,420.00
2023-05-30T03:02:12.660Z,420.00
2023-05-30T03:03:13.663Z,422.00
2023-05-30T03:04:14.094Z,422.00
2023-05-30T03:05:14.990Z,420.00
2023-05-30T03:06:15.934Z,422.00
2023-05-30T03:07:16.810Z,424.00
2023-05-30T03:08:25.482Z,425.00
2023-05-30T03:09:19.578Z,427.00
2023-05-30T03:10:19.501Z,425.00
2023-05-30T03:11:20.406Z,429.00
2023-05-30T03:12:21.949Z,425.00
2023-05-30T03:13:21.892Z,425.00
2023-05-30T03:14:22.792Z,426.00
2023-05-30T03:15:23.697Z,426.00
2023-05-30T03:16:24.664Z,427.00
2023-05-30T03:17:25.339Z,430.00
2023-05-30T03:18:26.248Z,428.00
2023-05-30T03:19:27.163Z,428.00
2023-05-30T03:20:28.090Z,428.00
2023-05-30T03:21:29.067Z,430.00
2023-05-30T03:22:30.019Z,429.00
2023-05-30T03:23:30.952Z,427.00
2023-05-30T03:24:31.870Z,432.00
2023-05-30T03:25:32.771Z,431.00
2023-05-30T03:26:33.692Z,425.00
2023-05-30T03:27:34.586Z,424.00
2023-05-30T03:28:36.434Z,424.00
2023-05-30T03:29:36.352Z,426.00
2023-05-30T03:30:37.281Z,427.00
2023-05-30T03:31:38.208Z,427.00
2023-05-30T03:32:39.134Z,428.00
2023-05-30T03:33:40.046Z,430.00
2023-05-30T03:34:40.956Z,432.00
2023-05-30T03:35:41.584Z,434.00
2023-05-30T03:36:42.555Z,434.00
2023-05-30T03:37:43.438Z,435.00
2023-05-30T03:38:44.361Z,433.00
2023-05-30T03:39:45.254Z,431.00
2023-05-30T03:40:46.270Z,430.00
2023-05-30T03:41:46.682Z,429.00
2023-05-30T03:42:47.610Z,429.00
2023-05-30T03:43:48.526Z,425.00
2023-05-30T03:44:49.478Z,427.00
2023-05-30T03:45:50.560Z,420.00
2023-05-30T03:46:51.929Z,426.00
2023-05-30T03:47:51.877Z,425.00
2023-05-30T03:48:55.431Z,425.00
2023-05-30T03:49:54.750Z,419.00
2023-05-30T03:50:53.884Z,421.00
2023-05-30T03:51:54.806Z,423.00
2023-05-30T03:52:55.692Z,424.00
2023-05-30T03:53:56.613Z,422.00
2023-05-30T03:54:57.595Z,424.00
2023-05-30T03:55:58.505Z,421.00
2023-05-30T03:56:59.393Z,421.00
2023-05-30T03:58:00.313Z,420.00
2023-05-30T03:59:01.232Z,420.00
2023-05-30T04:00:02.201Z,419.00
2023-05-30T04:01:03.101Z,419.00
2023-05-30T04:02:04.032Z,418.00
2023-05-30T04:03:04.935Z,415.00
2023-05-30T04:04:05.878Z,415.00
2023-05-30T04:05:06.804Z,416.00
2023-05-30T04:06:07.702Z,419.00
2023-05-30T04:07:08.666Z,419.00
2023-05-30T04:08:09.145Z,419.00
2023-05-30T04:09:10.078Z,417.00
2023-05-30T04:10:10.982Z,419.00
2023-05-30T04:11:11.902Z,421.00
2023-05-30T04:12:12.800Z,422.00
2023-05-30T04:13:13.724Z,422.00
2023-05-30T04:14:14.646Z,419.00
2023-05-30T04:15:15.552Z,419.00
2023-05-30T04:16:16.524Z,419.00
2023-05-30T04:17:16.946Z,418.00
2023-05-30T04:18:17.890Z,420.00
2023-05-30T04:19:18.783Z,423.00
2023-05-30T04:20:19.725Z,417.00
2023-05-30T04:21:20.606Z,415.00
2023-05-30T04:22:21.618Z,418.00
2023-05-30T04:23:22.525Z,416.00
2023-05-30T04:24:23.424Z,419.00
2023-05-30T04:25:24.361Z,416.00
2023-05-30T04:26:25.273Z,414.00
2023-05-30T04:27:26.196Z,411.00
2023-05-30T04:28:27.110Z,415.00
2023-05-30T04:29:28.006Z,406.00
2023-05-30T04:30:28.918Z,404.00
2023-05-30T04:31:29.870Z,409.00
2023-05-30T04:32:30.856Z,416.00
2023-05-30T04:33:31.723Z,418.00
2023-05-30T04:34:32.627Z,419.00
2023-05-30T04:35:33.526Z,418.00
2023-05-30T04:36:34.450Z,417.00
2023-05-30T04:37:35.365Z,416.00
2023-05-30T04:38:36.257Z,416.00
2023-05-30T04:39:37.944Z,415.00
2023-05-30T04:40:37.881Z,419.00
2023-05-30T04:41:38.840Z,418.00
2023-05-30T04:42:39.738Z,415.00
2023-05-30T04:43:40.639Z,412.00
2023-05-30T04:44:41.547Z,413.00
2023-05-30T04:45:42.536Z,413.00
2023-05-30T04:46:43.509Z,416.00
2023-05-30T04:47:43.976Z,416.00
2023-05-30T04:48:44.860Z,417.00
2023-05-30T04:49:45.759Z,420.00
2023-05-30T04:50:46.684Z,414.00
2023-05-30T04:51:47.600Z,414.00
2023-05-30T04:52:48.516Z,413.00
2023-05-30T04:53:49.386Z,416.00
2023-05-30T04:54:50.305Z,411.00
2023-05-30T04:55:51.289Z,413.00
2023-05-30T04:56:51.734Z,408.00
2023-05-30T04:57:52.636Z,406.00
2023-05-30T04:58:53.543Z,408.00
2023-05-30T04:59:54.215Z,409.00
2023-05-30T05:00:54.626Z,412.00
2023-05-30T05:01:55.298Z,409.00
2023-05-30T05:02:55.854Z,408.00
2023-05-30T05:03:56.484Z,409.00
2023-05-30T05:04:56.993Z,411.00
2023-05-30T05:05:57.888Z,413.00
2023-05-30T05:06:58.803Z,407.00
2023-05-30T05:07:59.839Z,409.00
2023-05-30T05:09:00.897Z,414.00
2023-05-30T05:10:00.942Z,408.00
2023-05-30T05:11:01.837Z,419.00
2023-05-30T05:12:03.456Z,415.00
2023-05-30T05:13:03.937Z,408.00
2023-05-30T05:14:03.866Z,409.00
2023-05-30T05:15:04.804Z,407.00
2023-05-30T05:16:05.938Z,411.00
2023-05-30T05:17:06.369Z,413.00
2023-05-30T05:18:07.363Z,419.00
2023-05-30T05:19:07.795Z,413.00
2023-05-30T05:20:11.992Z,408.00
2023-05-30T05:21:10.539Z,412.00
2023-05-30T05:22:10.452Z,411.00
2023-05-30T05:23:11.472Z,412.00
2023-05-30T05:24:12.371Z,413.00
2023-05-30T05:25:13.280Z,412.00
2023-05-30T05:26:14.180Z,413.00
2023-05-30T05:27:16.958Z,411.00
2023-05-30T05:28:15.878Z,412.00
2023-05-30T05:29:16.792Z,414.00
2023-05-30T05:30:17.697Z,413.00
2023-05-30T05:31:18.609Z,412.00
2023-05-30T05:32:19.526Z,410.00
2023-05-30T05:33:20.464Z,416.00
2023-05-30T05:34:21.370Z,419.00
2023-05-30T05:35:22.276Z,413.00
2023-05-30T05:36:23.179Z,409.00
2023-05-30T05:37:24.094Z,410.00
2023-05-30T05:38:25.016Z,410.00
2023-05-30T05:39:25.900Z,412.00
2023-05-30T05:40:26.807Z,413.00
2023-05-30T05:41:29.476Z,411.00
2023-05-30T05:42:28.395Z,412.00
2023-05-30T05:43:29.304Z,413.00
2023-05-30T05:44:30.212Z,409.00
2023-05-30T05:45:32.959Z,412.00
2023-05-30T05:46:31.928Z,410.00
2023-05-30T05:47:33.482Z,410.00
2023-05-30T05:48:33.476Z,413.00
2023-05-30T05:49:34.405Z,412.00
2023-05-30T05:50:35.300Z,410.00
2023-05-30T05:51:36.233Z,410.00
2023-05-30T05:52:37.969Z,412.00
2023-05-30T05:53:38.476Z,413.00
2023-05-30T05:54:39.978Z,415.00
2023-05-30T05:55:38.888Z,419.00
2023-05-30T05:56:41.495Z,422.00
2023-05-30T05:57:40.390Z,421.00
2023-05-30T05:58:41.315Z,420.00
2023-05-30T05:59:42.218Z,420.00
2023-05-30T06:00:43.170Z,420.00
2023-05-30T06:01:44.069Z,421.00
2023-05-30T06:02:45.092Z,420.00
2023-05-30T06:03:46.510Z,420.00
2023-05-30T06:04:46.512Z,416.00
2023-05-30T06:05:47.398Z,416.00
2023-05-30T06:06:48.472Z,412.00
2023-05-30T06:07:49.011Z,415.00
2023-05-30T06:08:49.791Z,412.00
2023-05-30T06:09:50.421Z,408.00
2023-05-30T06:10:51.401Z,415.00
2023-05-30T06:11:52.960Z,411.00
2023-05-30T06:12:52.918Z,409.00
2023-05-30T06:13:54.512Z,409.00
2023-05-30T06:14:54.461Z,414.00
2023-05-30T06:15:56.022Z,412.00
2023-05-30T06:16:55.911Z,415.00
2023-05-30T06:17:56.860Z,420.00
2023-05-30T06:18:57.781Z,409.00
2023-05-30T06:19:58.780Z,414.00
2023-05-30T06:20:59.634Z,417.00
2023-05-30T06:21:59.740Z,417.00
2023-05-30T06:23:00.698Z,415.00
2023-05-30T06:24:01.815Z,412.00
2023-05-30T06:25:02.222Z,414.00
2023-05-30T06:26:03.088Z,413.00
2023-05-30T06:27:03.995Z,412.00
2023-05-30T06:28:04.958Z,411.00
2023-05-30T06:29:05.869Z,412.00
2023-05-30T06:30:06.776Z,410.00
2023-05-30T06:31:07.670Z,412.00
2023-05-30T06:32:16.183Z,416.00
2023-05-30T06:33:10.424Z,416.00
2023-05-30T06:34:10.329Z,420.00
2023-05-30T06:35:11.223Z,419.00
2023-05-30T06:36:12.140Z,417.00
2023-05-30T06:37:13.043Z,423.00
2023-05-30T06:38:13.968Z,418.00
2023-05-30T06:39:14.937Z,419.00
2023-05-30T06:40:15.787Z,414.00
2023-05-30T06:41:16.695Z,412.00
2023-05-30T06:42:17.617Z,413.00
2023-05-30T06:43:19.479Z,416.00
2023-05-30T06:44:19.380Z,414.00
2023-05-30T06:45:20.870Z,412.00
2023-05-30T06:46:20.917Z,408.00
2023-05-30T06:47:21.869Z,410.00
2023-05-30T06:48:22.751Z,413.00
2023-05-30T06:49:23.705Z,403.00
2023-05-30T06:50:26.471Z,405.00
2023-05-30T06:51:25.432Z,404.00
2023-05-30T06:52:26.957Z,409.00
2023-05-30T06:53:26.877Z,414.00
2023-05-30T06:54:27.822Z,413.00
2023-05-30T06:55:28.731Z,406.00
2023-05-30T06:56:29.669Z,409.00
2023-05-30T06:57:30.597Z,411.00
2023-05-30T06:58:31.500Z,407.00
2023-05-30T06:59:32.420Z,409.00
2023-05-30T07:00:33.327Z,407.00
2023-05-30T07:01:34.365Z,408.00
2023-05-30T07:02:34.836Z,411.00
2023-05-30T07:03:35.749Z,405.00
2023-05-30T07:04:37.524Z,408.00
2023-05-30T07:05:37.977Z,403.00
2023-05-30T07:06:38.408Z,403.00
2023-05-30T07:07:39.316Z,403.00
2023-05-30T07:08:40.224Z,403.00
2023-05-30T07:09:41.157Z,406.00
2023-05-30T07:10:42.970Z,406.00
2023-05-30T07:11:42.883Z,404.00
2023-05-30T07:12:43.789Z,404.00
2023-05-30T07:13:44.737Z,404.00
2023-05-30T07:14:45.663Z,403.00
2023-05-30T07:15:46.602Z,404.00
2023-05-30T07:16:47.542Z,402.00
2023-05-30T07:17:48.465Z,402.00
2023-05-30T07:18:57.444Z,402.00
2023-05-30T07:19:51.276Z,397.00
2023-05-30T07:20:51.368Z,404.00
2023-05-30T07:21:51.823Z,402.00
2023-05-30T07:22:53.487Z,404.00
2023-05-30T07:23:53.387Z,404.00
2023-05-30T07:24:54.331Z,403.00
2023-05-30T07:25:57.000Z,395.00
2023-05-30T07:26:55.898Z,396.00
2023-05-30T07:27:56.824Z,398.00
2023-05-30T07:28:57.777Z,402.00
2023-05-30T07:29:58.696Z,405.00
2023-05-30T07:30:59.597Z,398.00
2023-05-30T07:32:00.608Z,401.00
2023-05-30T07:33:01.182Z,402.00
2023-05-30T07:34:02.098Z,406.00
2023-05-30T07:35:02.990Z,413.00
2023-05-30T07:36:03.912Z,411.00
2023-05-30T07:37:04.809Z,412.00
2023-05-30T07:38:05.724Z,416.00
2023-05-30T07:39:06.680Z,412.00
2023-05-30T07:40:07.578Z,415.00
2023-05-30T07:41:08.479Z,414.00
2023-05-30T07:42:10.002Z,416.00
2023-05-30T07:43:09.946Z,416.00
2023-05-30T07:44:12.507Z,414.00
2023-05-30T07:45:11.392Z,408.00
2023-05-30T07:46:12.345Z,406.00
2023-05-30T07:47:13.238Z,402.00
2023-05-30T07:48:14.044Z,405.00
2023-05-30T07:49:14.999Z,408.00
2023-05-30T07:50:15.909Z,407.00
2023-05-30T07:51:16.827Z,408.00
2023-05-30T07:52:17.743Z,407.00
2023-05-30T07:53:18.704Z,407.00
2023-05-30T07:54:19.621Z,406.00
2023-05-30T07:55:20.597Z,407.00
2023-05-30T07:56:21.465Z,407.00
2023-05-30T07:57:23.001Z,408.00
2023-05-30T07:58:23.489Z,398.00
2023-05-30T07:59:23.411Z,399.00
2023-05-30T08:00:25.979Z,401.00
2023-05-30T08:01:24.908Z,403.00
2023-05-30T08:02:25.920Z,401.00
2023-05-30T08:03:27.379Z,403.00
2023-05-30T08:04:26.933Z,403.00
2023-05-30T08:05:31.516Z,406.00
2023-05-30T08:06:28.411Z,404.00
2023-05-30T08:07:30.003Z,405.00
2023-05-30T08:08:29.915Z,401.00
2023-05-30T08:09:30.890Z,403.00
2023-05-30T08:10:31.861Z,402.00
2023-05-30T08:11:32.326Z,401.00
2023-05-30T08:12:33.251Z,399.00
2023-05-30T08:13:34.139Z,402.00
2023-05-30T08:14:35.056Z,402.00
2023-05-30T08:15:35.998Z,401.00
2023-05-30T08:16:37.032Z,403.00
2023-05-30T08:17:37.414Z,404.00
2023-05-30T08:18:38.327Z,406.00
2023-05-30T08:19:39.300Z,405.00
2023-05-30T08:20:40.277Z,408.00
2023-05-30T08:21:41.061Z,409.00
2023-05-30T08:22:41.536Z,409.00
2023-05-30T08:23:42.414Z,415.00
2023-05-30T08:24:44.035Z,409.00
2023-05-30T08:25:43.979Z,407.00
2023-05-30T08:26:44.896Z,404.00
2023-05-30T08:27:45.819Z,410.00
2023-05-30T08:28:48.589Z,403.00
2023-05-30T08:29:47.491Z,407.00
2023-05-30T08:30:48.537Z,405.00
2023-05-30T08:31:48.912Z,407.00
2023-05-30T08:32:49.846Z,409.00
2023-05-30T08:33:51.484Z,414.00
2023-05-30T08:34:51.467Z,412.00
2023-05-30T08:35:52.334Z,408.00
2023-05-30T08:36:53.235Z,408.00
2023-05-30T08:37:54.145Z,408.00
2023-05-30T08:39:13.236Z,415.00
2023-05-30T08:39:56.907Z,413.00
2023-05-30T08:40:56.987Z,411.00
2023-05-30T08:41:57.507Z,412.00
2023-05-30T08:42:58.415Z,411.00
2023-05-30T08:43:59.382Z,411.00
2023-05-30T08:45:00.278Z,411.00
2023-05-30T08:46:01.243Z,409.00
2023-05-30T08:47:02.146Z,413.00
2023-05-30T08:48:03.079Z,411.00
2023-05-30T08:49:07.010Z,411.00
2023-05-30T08:50:04.910Z,405.00
2023-05-30T08:51:05.830Z,405.00
2023-05-30T08:52:06.734Z,406.00
2023-05-30T08:53:09.589Z,399.00
2023-05-30T08:54:09.005Z,398.00
2023-05-30T08:55:09.445Z,401.00
2023-05-30T08:56:10.369Z,399.00
2023-05-30T08:57:12.030Z,404.00
2023-05-30T08:58:11.967Z,403.00
2023-05-30T08:59:12.876Z,408.00
2023-05-30T09:00:14.616Z,404.00
2023-05-30T09:01:16.607Z,403.00
2023-05-30T09:02:15.532Z,404.00
2023-05-30T09:03:16.546Z,404.00
2023-05-30T09:04:17.543Z,399.00
2023-05-30T09:05:17.452Z,400.00
2023-05-30T09:06:18.487Z,397.00
2023-05-30T09:07:19.511Z,401.00
2023-05-30T09:08:19.452Z,402.00
2023-05-30T09:09:20.323Z,405.00
2023-05-30T09:10:22.094Z,405.00
2023-05-30T09:11:21.989Z,416.00
2023-05-30T09:12:22.928Z,410.00
2023-05-30T09:13:23.829Z,404.00
2023-05-30T09:14:24.781Z,406.00
2023-05-30T09:15:25.703Z,405.00
2023-05-30T09:16:26.721Z,405.00
2023-05-30T09:17:27.152Z,402.00
2023-05-30T09:18:28.048Z,403.00
2023-05-30T09:19:28.959Z,409.00
2023-05-30T09:20:31.610Z,404.00
2023-05-30T09:21:30.557Z,404.00
2023-05-30T09:22:31.471Z,403.00
2023-05-30T09:23:32.387Z,401.00
2023-05-30T09:24:33.295Z,404.00
2023-05-30T09:25:34.276Z,408.00
2023-05-30T09:26:35.229Z,410.00
2023-05-30T09:27:36.134Z,412.00
2023-05-30T09:28:37.051Z,409.00
2023-05-30T09:29:37.950Z,410.00
2023-05-30T09:30:38.916Z,409.00
2023-05-30T09:31:39.799Z,405.00
2023-05-30T09:32:40.754Z,410.00
2023-05-30T09:33:41.643Z,405.00
2023-05-30T09:34:42.731Z,404.00
2023-05-30T09:35:45.043Z,406.00
2023-05-30T09:36:43.950Z,406.00
2023-05-30T09:37:48.053Z,405.00
2023-05-30T09:38:45.751Z,411.00
2023-05-30T09:39:46.749Z,408.00
2023-05-30T09:40:47.864Z,409.00
2023-05-30T09:41:48.328Z,408.00
2023-05-30T09:42:49.222Z,409.00
2023-05-30T09:43:50.230Z,406.00
2023-05-30T09:44:50.828Z,402.00
2023-05-30T09:45:51.748Z,402.00
2023-05-30T09:46:52.698Z,401.00
2023-05-30T09:47:53.653Z,402.00
2023-05-30T09:48:54.089Z,406.00
2023-05-30T09:49:55.027Z,407.00
2023-05-30T09:50:56.212Z,410.00
2023-05-30T09:51:56.751Z,407.00
2023-05-30T09:52:58.026Z,408.00
2023-05-30T09:53:59.498Z,411.00
2023-05-30T09:55:01.107Z,410.00
2023-05-30T09:56:00.044Z,405.00
2023-05-30T09:57:00.955Z,410.00
2023-05-30T09:58:01.881Z,411.00
2023-05-30T09:59:02.903Z,412.00
2023-05-30T10:00:03.819Z,413.00
2023-05-30T10:01:04.716Z,414.00
2023-05-30T10:02:05.670Z,411.00
2023-05-30T10:03:06.692Z,413.00
2023-05-30T10:04:07.343Z,411.00
2023-05-30T10:05:07.807Z,410.00
2023-05-30T10:06:08.719Z,419.00
2023-05-30T10:07:09.645Z,402.00
2023-05-30T10:08:10.559Z,408.00
2023-05-30T10:09:11.456Z,409.00
2023-05-30T10:10:12.375Z,411.00
2023-05-30T10:11:13.304Z,409.00
2023-05-30T10:12:15.091Z,407.00
2023-05-30T10:13:15.009Z,405.00
2023-05-30T10:14:15.973Z,404.00
2023-05-30T10:15:16.897Z,404.00
2023-05-30T10:16:17.829Z,403.00
2023-05-30T10:17:18.786Z,419.00
2023-05-30T10:18:19.691Z,409.00
2023-05-30T10:19:20.650Z,405.00
2023-05-30T10:20:22.060Z,405.00
2023-05-30T10:21:22.461Z,404.00
2023-05-30T10:22:23.389Z,399.00
2023-05-30T10:23:24.354Z,407.00
2023-05-30T10:24:25.217Z,403.00
2023-05-30T10:25:26.193Z,404.00
2023-05-30T10:26:26.983Z,406.00
2023-05-30T10:27:27.492Z,405.00
2023-05-30T10:28:28.417Z,407.00
2023-05-30T10:29:29.329Z,414.00
2023-05-30T10:30:30.239Z,407.00
2023-05-30T10:31:31.256Z,406.00
2023-05-30T10:32:31.671Z,402.00
2023-05-30T10:33:55.350Z,405.00
2023-05-30T10:34:34.355Z,408.00
2023-05-30T10:35:35.521Z,412.00
2023-05-30T10:36:34.889Z,409.00
2023-05-30T10:37:35.790Z,412.00
2023-05-30T10:38:37.594Z,410.00
2023-05-30T10:39:37.492Z,410.00
2023-05-30T10:40:38.409Z,411.00
2023-05-30T10:41:49.539Z,409.00
2023-05-30T10:42:40.794Z,410.00
2023-05-30T10:43:41.528Z,408.00
2023-05-30T10:44:41.437Z,407.00
2023-05-30T10:45:42.410Z,404.00
2023-05-30T10:46:43.388Z,405.00
2023-05-30T10:47:44.327Z,399.00
2023-05-30T10:48:45.244Z,403.00
2023-05-30T10:49:46.250Z,407.00
2023-05-30T10:50:47.087Z,403.00
2023-05-30T10:51:47.485Z,394.00
2023-05-30T10:52:48.468Z,399.00
2023-05-30T10:53:49.362Z,400.00
2023-05-30T10:54:50.292Z,396.00
2023-05-30T10:55:51.208Z,398.00
2023-05-30T10:56:52.161Z,396.00
2023-05-30T10:57:53.071Z,408.00
2023-05-30T10:58:53.963Z,405.00
2023-05-30T10:59:54.937Z,405.00
2023-05-30T11:00:56.528Z,407.00
2023-05-30T11:01:56.475Z,400.00
2023-05-30T11:02:56.999Z,404.00
2023-05-30T11:03:57.933Z,401.00
2023-05-30T11:04:58.868Z,398.00
2023-05-30T11:06:00.190Z,411.00
2023-05-30T11:07:00.282Z,391.00
2023-05-30T11:08:01.280Z,391.00
2023-05-30T11:09:01.767Z,400.00
2023-05-30T11:10:04.110Z,415.00
2023-05-30T11:11:03.362Z,397.00
2023-05-30T11:12:04.348Z,403.00
2023-05-30T11:13:04.799Z,402.00
2023-05-30T11:14:05.729Z,405.00
2023-05-30T11:15:06.662Z,409.00
2023-05-30T11:16:07.600Z,415.00
2023-05-30T11:17:08.540Z,408.00
2023-05-30T11:18:09.594Z,410.00
2023-05-30T11:19:11.700Z,412.00
2023-05-30T11:20:10.918Z,415.00
2023-05-30T11:21:11.470Z,409.00
2023-05-30T11:22:12.729Z,411.00
2023-05-30T11:23:13.847Z,410.00
2023-05-30T11:24:13.776Z,406.00
2023-05-30T11:25:14.738Z,409.00
2023-05-30T11:26:15.616Z,407.00
2023-05-30T11:27:16.534Z,410.00
2023-05-30T11:28:17.006Z,409.00
2023-05-30T11:29:17.898Z,403.00
2023-05-30T11:30:20.556Z,401.00
2023-05-30T11:31:19.546Z,399.00
2023-05-30T11:32:20.046Z,405.00
2023-05-30T11:33:20.978Z,411.00
2023-05-30T11:34:24.573Z,406.00
2023-05-30T11:37:11.590Z,407.00
2023-05-30T11:38:12.490Z,393.00
2023-05-30T11:39:13.402Z,394.00
2023-05-30T11:40:14.318Z,400.00
2023-05-30T11:41:15.216Z,403.00
2023-05-30T11:42:16.104Z,407.00
2023-05-30T11:43:17.000Z,405.00
2023-05-30T11:44:17.900Z,404.00
2023-05-30T11:45:18.848Z,405.00
2023-05-30T11:46:19.869Z,406.00
2023-05-30T11:47:43.743Z,411.00
2023-05-30T11:48:22.094Z,408.00
2023-05-30T11:49:21.990Z,431.00
2023-05-30T11:50:22.945Z,396.00
2023-05-30T11:51:24.441Z,389.00
2023-05-30T11:52:24.588Z,401.00
2023-05-30T11:53:25.494Z,404.00
2023-05-30T11:54:26.409Z,404.00
2023-05-30T11:55:27.333Z,407.00
2023-05-30T11:56:28.294Z,404.00
2023-05-30T11:57:30.821Z,404.00
2023-05-30T11:58:29.709Z,403.00
2023-05-30T11:59:30.643Z,404.00
2023-05-30T12:00:31.559Z,404.00
2023-05-30T12:01:32.464Z,396.00
2023-05-30T12:02:34.200Z,387.00
2023-05-30T12:03:34.060Z,395.00
2023-05-30T12:04:35.082Z,397.00
2023-05-30T12:05:35.511Z,398.00
2023-05-30T12:06:36.531Z,397.00
2023-05-30T12:07:36.941Z,398.00
2023-05-30T12:08:37.833Z,397.00
2023-05-30T12:09:38.792Z,391.00
2023-05-30T12:10:39.698Z,395.00
2023-05-30T12:11:40.610Z,399.00
2023-05-30T12:12:41.744Z,390.00
2023-05-30T12:13:42.154Z,397.00
2023-05-30T12:14:43.106Z,403.00
2023-05-30T12:15:44.004Z,406.00
2023-05-30T12:16:45.797Z,403.00
2023-05-30T12:17:45.832Z,408.00
2023-05-30T12:18:46.381Z,409.00
2023-05-30T12:19:47.718Z,405.00
2023-05-30T12:20:47.721Z,403.00
2023-05-30T12:21:48.124Z,403.00
2023-05-30T12:22:49.085Z,402.00
2023-05-30T12:23:49.989Z,400.00
2023-05-30T12:24:50.904Z,399.00
2023-05-30T12:25:53.813Z,395.00
2023-05-30T12:26:52.676Z,397.00
2023-05-30T12:27:53.618Z,397.00
2023-05-30T12:28:54.539Z,407.00
2023-05-30T12:29:55.457Z,401.00
2023-05-30T12:30:56.567Z,397.00
2023-05-30T12:31:57.765Z,403.00
2023-05-30T12:32:57.829Z,407.00
2023-05-30T12:33:58.294Z,401.00
2023-05-30T12:34:59.215Z,401.00
2023-05-30T12:36:00.323Z,396.00
2023-05-30T12:37:00.714Z,395.00
2023-05-30T12:38:02.942Z,402.00
2023-05-30T12:39:02.231Z,404.00
2023-05-30T12:40:03.125Z,404.00
2023-05-30T12:41:04.029Z,402.00